createdAt,value
2018-07-27T00:00:38.730Z,93.90
2018-07-27T00:03:07.108Z,94.10
2018-07-27T00:05:35.431Z,94.50
2018-07-27T00:08:03.760Z,94.50
2018-07-27T00:10:32.084Z,94.60
2018-07-27T00:13:00.380Z,95.00
2018-07-27T00:15:28.699Z,94.70
2018-07-27T00:17:57.012Z,94.90
2018-07-27T00:20:25.319Z,95.00
2018-07-27T00:22:53.644Z,94.80
2018-07-27T00:25:21.939Z,95.20
2018-07-27T00:27:50.235Z,95.30
2018-07-27T00:30:18.532Z,95.10
2018-07-27T00:32:46.848Z,94.40
2018-07-27T00:35:15.159Z,94.10
2018-07-27T00:37:43.854Z,94.00
2018-07-27T00:40:12.152Z,94.00
2018-07-27T00:42:41.082Z,93.80
2018-07-27T00:45:09.411Z,94.10
2018-07-27T00:47:37.763Z,94.40
2018-07-27T00:50:06.156Z,94.70
2018-07-27T00:52:34.467Z,94.40
2018-07-27T00:55:03.800Z,94.30
2018-07-27T00:57:32.436Z,94.10
2018-07-27T01:00:00.721Z,94.00
2018-07-27T01:02:29.063Z,93.80
2018-07-27T01:04:57.386Z,93.80
2018-07-27T01:07:25.695Z,93.40
2018-07-27T01:09:54.047Z,92.90
2018-07-27T01:12:22.380Z,92.90
2018-07-27T01:14:50.683Z,92.90
2018-07-27T01:17:19.006Z,92.30
2018-07-27T01:19:47.308Z,91.60
2018-07-27T01:22:15.646Z,91.70
2018-07-27T01:24:43.946Z,91.70
2018-07-27T01:27:12.234Z,91.40
2018-07-27T01:29:40.547Z,91.60
2018-07-27T01:32:08.923Z,91.40
2018-07-27T01:34:37.221Z,91.40
2018-07-27T01:37:05.538Z,91.60
2018-07-27T01:39:33.840Z,91.60
2018-07-27T01:42:02.174Z,91.80
2018-07-27T01:44:30.499Z,92.10
2018-07-27T01:46:58.856Z,92.80
2018-07-27T01:49:27.183Z,93.10
2018-07-27T01:51:55.483Z,91.50
2018-07-27T01:54:23.807Z,91.40
2018-07-27T01:56:52.132Z,91.50
2018-07-27T01:59:20.474Z,91.70
2018-07-27T02:01:48.798Z,91.70
2018-07-27T02:04:17.107Z,92.00
2018-07-27T02:06:45.548Z,92.50
2018-07-27T02:09:13.903Z,92.80
2018-07-27T02:11:42.216Z,92.80
2018-07-27T02:14:11.829Z,92.50
2018-07-27T02:16:40.157Z,92.10
2018-07-27T02:19:08.508Z,92.20
2018-07-27T02:21:36.800Z,92.00
2018-07-27T02:24:05.915Z,91.80
2018-07-27T02:26:34.262Z,91.60
2018-07-27T02:29:02.603Z,90.60
2018-07-27T02:31:30.943Z,90.50
2018-07-27T02:33:59.268Z,90.30
2018-07-27T02:36:27.584Z,90.30
2018-07-27T02:38:55.877Z,90.50
2018-07-27T02:41:24.205Z,89.20
2018-07-27T02:43:52.508Z,90.00
2018-07-27T02:46:21.865Z,88.30
2018-07-27T02:48:50.164Z,88.30
2018-07-27T02:51:18.525Z,87.00
2018-07-27T02:53:46.807Z,87.60
2018-07-27T02:56:15.120Z,87.30
2018-07-27T02:58:43.424Z,87.10
2018-07-27T03:01:11.748Z,84.70
2018-07-27T03:03:40.076Z,84.70
2018-07-27T03:06:08.380Z,85.90
2018-07-27T03:08:36.711Z,86.10
2018-07-27T03:11:05.050Z,87.20
2018-07-27T03:13:33.353Z,88.00
2018-07-27T03:16:01.675Z,88.20
2018-07-27T03:18:29.983Z,89.20
2018-07-27T03:20:58.324Z,89.80
2018-07-27T03:23:26.636Z,89.30
2018-07-27T03:25:54.965Z,87.70
2018-07-27T03:28:23.321Z,89.00
2018-07-27T03:30:51.656Z,88.90
2018-07-27T03:33:19.978Z,88.80
2018-07-27T03:35:48.273Z,89.50
2018-07-27T03:38:16.725Z,90.60
2018-07-27T03:40:45.036Z,90.70
2018-07-27T03:43:13.363Z,90.90
2018-07-27T03:45:41.696Z,90.40
2018-07-27T03:48:10.460Z,90.50
2018-07-27T03:50:40.415Z,90.50
2018-07-27T03:53:09.111Z,90.60
2018-07-27T03:55:37.415Z,90.60
2018-07-27T03:58:05.807Z,90.40
2018-07-27T04:00:34.140Z,90.10
2018-07-27T04:03:02.479Z,89.80
2018-07-27T04:05:30.774Z,90.20
2018-07-27T04:07:59.084Z,91.10
2018-07-27T04:10:27.880Z,91.30
2018-07-27T04:12:56.247Z,90.70
2018-07-27T04:15:24.632Z,90.30
2018-07-27T04:18:07.499Z,90.40
2018-07-27T04:20:35.805Z,90.20
2018-07-27T04:23:04.161Z,90.30
2018-07-27T04:25:32.503Z,90.30
2018-07-27T04:28:00.836Z,90.70
2018-07-27T04:30:29.158Z,90.80
2018-07-27T04:32:57.520Z,90.80
2018-07-27T04:35:25.848Z,90.60
2018-07-27T04:37:54.173Z,91.00
2018-07-27T04:40:22.536Z,89.50
2018-07-27T04:42:50.850Z,87.20
2018-07-27T04:45:19.152Z,87.30
2018-07-27T04:47:47.495Z,86.30
2018-07-27T04:50:15.824Z,85.00
2018-07-27T04:52:44.136Z,84.90
2018-07-27T04:55:12.432Z,84.20
2018-07-27T04:57:40.749Z,84.90
2018-07-27T05:00:10.020Z,84.90
2018-07-27T05:02:38.324Z,84.90
2018-07-27T05:05:06.654Z,84.30
2018-07-27T05:07:34.940Z,83.50
2018-07-27T05:10:07.563Z,82.40
2018-07-27T05:12:35.872Z,82.20
2018-07-27T05:15:04.656Z,81.40
2018-07-27T05:17:32.968Z,81.10
2018-07-27T05:20:01.316Z,81.10
2018-07-27T05:22:29.631Z,82.00
2018-07-27T05:24:57.966Z,80.60
2018-07-27T05:27:26.315Z,80.30
2018-07-27T05:29:54.659Z,80.40
2018-07-27T05:32:22.991Z,80.30
2018-07-27T05:34:51.288Z,79.30
2018-07-27T05:37:19.623Z,79.40
2018-07-27T05:39:47.928Z,79.40
2018-07-27T05:42:16.223Z,78.20
2018-07-27T05:44:44.562Z,78.00
2018-07-27T05:47:12.887Z,78.40
2018-07-27T05:49:41.171Z,78.00
2018-07-27T05:52:09.492Z,78.50
2018-07-27T05:54:37.880Z,77.60
2018-07-27T05:57:06.220Z,78.00
2018-07-27T05:59:34.533Z,79.90
2018-07-27T06:02:03.926Z,76.40
2018-07-27T06:04:32.304Z,75.50
2018-07-27T06:07:00.668Z,74.80
2018-07-27T06:09:28.967Z,75.30
2018-07-27T06:11:57.337Z,74.90
2018-07-27T06:14:25.716Z,74.20
2018-07-27T06:16:54.092Z,74.50
2018-07-27T06:19:22.500Z,73.80
2018-07-27T06:21:50.811Z,73.00
2018-07-27T06:24:19.266Z,73.10
2018-07-27T06:26:47.448Z,71.40
2018-07-27T06:29:15.808Z,71.20
2018-07-27T06:31:44.120Z,71.90
2018-07-27T06:34:12.511Z,70.80
2018-07-27T06:36:40.840Z,71.10
2018-07-27T06:39:10.315Z,69.70
2018-07-27T06:41:38.847Z,69.00
2018-07-27T06:44:07.175Z,69.20
2018-07-27T06:46:35.532Z,68.20
2018-07-27T06:49:03.883Z,69.10
2018-07-27T06:51:32.196Z,68.20
2018-07-27T06:54:00.577Z,68.70
2018-07-27T06:56:28.892Z,66.70
2018-07-27T06:58:57.196Z,65.60
2018-07-27T07:01:25.508Z,66.70
2018-07-27T07:03:53.819Z,66.40
2018-07-27T07:06:22.123Z,68.10
2018-07-27T07:08:50.448Z,67.40
2018-07-27T07:11:18.749Z,66.20
2018-07-27T07:13:47.135Z,65.70
2018-07-27T07:16:15.434Z,65.20
2018-07-27T07:18:43.766Z,66.60
2018-07-27T07:21:12.105Z,64.00
2018-07-27T07:23:40.455Z,63.80
2018-07-27T07:26:09.190Z,63.60
2018-07-27T07:28:37.187Z,65.40
2018-07-27T07:31:05.556Z,65.20
2018-07-27T07:33:33.879Z,65.60
2018-07-27T07:36:02.213Z,64.40
2018-07-27T07:38:30.748Z,63.50
2018-07-27T07:40:59.064Z,64.10
2018-07-27T07:43:27.368Z,64.60
2018-07-27T07:45:55.765Z,64.70
2018-07-27T07:48:24.089Z,64.70
2018-07-27T07:50:52.583Z,62.30
2018-07-27T07:53:20.942Z,63.10
2018-07-27T07:55:49.229Z,63.10
2018-07-27T07:58:17.549Z,63.70
2018-07-27T08:00:45.859Z,63.40
2018-07-27T08:03:14.204Z,61.80
2018-07-27T08:05:42.578Z,61.50
2018-07-27T08:08:10.868Z,62.10
2018-07-27T08:10:39.205Z,63.30
2018-07-27T08:13:07.580Z,63.20
2018-07-27T08:15:35.883Z,65.00
2018-07-27T08:18:04.341Z,65.10
2018-07-27T08:20:33.063Z,63.80
2018-07-27T08:23:01.488Z,62.90
2018-07-27T08:27:41.316Z,62.20
2018-07-27T08:30:14.100Z,62.00
2018-07-27T08:32:42.463Z,62.30
2018-07-27T08:35:10.793Z,60.80
2018-07-27T08:37:39.107Z,61.80
2018-07-27T08:40:08.069Z,66.70
2018-07-27T08:42:36.401Z,59.50
2018-07-27T08:45:05.284Z,59.10
2018-07-27T08:47:33.583Z,60.40
2018-07-27T08:50:01.913Z,59.40
2018-07-27T08:52:30.256Z,59.10
2018-07-27T08:54:58.545Z,57.40
2018-07-27T08:57:26.887Z,56.70
2018-07-27T08:59:55.224Z,57.60
2018-07-27T09:02:24.240Z,57.70
2018-07-27T09:04:52.551Z,57.60
2018-07-27T09:07:20.872Z,64.70
2018-07-27T09:09:49.180Z,58.30
2018-07-27T09:12:17.521Z,62.00
2018-07-27T09:14:45.823Z,57.50
2018-07-27T09:17:14.159Z,56.90
2018-07-27T09:19:42.432Z,56.60
2018-07-27T09:22:10.745Z,63.80
2018-07-27T09:24:39.160Z,62.00
2018-07-27T09:27:07.355Z,59.60
2018-07-27T09:29:35.672Z,58.20
2018-07-27T09:32:04.005Z,60.20
2018-07-27T09:34:32.392Z,57.40
2018-07-27T09:37:00.739Z,59.80
2018-07-27T09:39:29.075Z,59.30
2018-07-27T09:41:57.408Z,55.00
2018-07-27T09:44:27.053Z,53.70
2018-07-27T09:46:55.376Z,56.30
2018-07-27T09:49:23.704Z,54.70
2018-07-27T09:51:52.108Z,52.80
2018-07-27T09:54:20.428Z,52.30
2018-07-27T09:56:48.771Z,54.40
2018-07-27T09:59:17.100Z,51.20
2018-07-27T10:01:45.448Z,54.20
2018-07-27T10:04:13.790Z,53.30
2018-07-27T10:06:42.120Z,53.00
2018-07-27T10:09:10.425Z,51.90
2018-07-27T10:11:38.743Z,49.20
2018-07-27T10:14:07.056Z,48.80
2018-07-27T10:16:35.376Z,48.70
2018-07-27T10:19:03.728Z,48.10
2018-07-27T10:21:32.040Z,48.70
2018-07-27T10:24:00.422Z,48.60
2018-07-27T10:26:28.671Z,46.50
2018-07-27T10:28:56.980Z,48.40
2018-07-27T10:31:25.283Z,47.50
2018-07-27T10:33:53.623Z,44.90
2018-07-27T10:36:21.943Z,45.30
2018-07-27T10:38:50.296Z,45.50
2018-07-27T10:41:18.597Z,46.50
2018-07-27T10:43:46.887Z,45.60
2018-07-27T10:46:15.195Z,46.30
2018-07-27T10:48:43.536Z,45.30
2018-07-27T10:51:11.840Z,44.10
2018-07-27T10:53:40.140Z,45.10
2018-07-27T10:56:08.456Z,43.60
2018-07-27T10:58:36.764Z,42.20
2018-07-27T11:01:05.207Z,40.70
2018-07-27T11:03:33.512Z,44.50
2018-07-27T11:06:01.928Z,44.60
2018-07-27T11:08:30.244Z,42.90
2018-07-27T11:10:58.695Z,42.00
2018-07-27T11:13:27.284Z,41.40
2018-07-27T11:15:55.601Z,38.70
2018-07-27T11:18:23.907Z,39.60
2018-07-27T11:20:52.317Z,40.60
2018-07-27T11:23:20.627Z,40.70
2018-07-27T11:25:48.943Z,39.70
2018-07-27T11:28:17.524Z,41.00
2018-07-27T11:30:45.929Z,40.70
2018-07-27T11:33:14.252Z,41.20
2018-07-27T11:35:42.579Z,39.40
2018-07-27T11:38:10.887Z,39.70
2018-07-27T11:40:39.209Z,39.20
2018-07-27T11:43:07.557Z,37.20
2018-07-27T11:45:35.863Z,39.40
2018-07-27T11:48:04.207Z,37.90
2018-07-27T11:50:32.587Z,38.00
2018-07-27T11:53:00.921Z,35.50
2018-07-27T11:55:29.235Z,36.60
2018-07-27T11:57:57.583Z,32.80
2018-07-27T12:00:25.944Z,29.70
2018-07-27T12:02:54.249Z,30.10
2018-07-27T12:05:22.560Z,33.00
2018-07-27T12:07:50.902Z,35.10
2018-07-27T12:10:19.216Z,36.70
2018-07-27T12:12:47.560Z,34.80
2018-07-27T12:15:16.119Z,32.70
2018-07-27T12:17:44.332Z,33.00
2018-07-27T12:20:12.710Z,31.80
2018-07-27T12:22:41.027Z,35.80
2018-07-27T12:25:09.388Z,29.90
2018-07-27T12:27:37.748Z,31.40
2018-07-27T12:30:06.229Z,33.20
2018-07-27T12:32:34.558Z,33.80
2018-07-27T12:35:03.787Z,34.30
2018-07-27T12:37:32.092Z,33.20
2018-07-27T12:40:00.400Z,32.30
2018-07-27T12:42:28.696Z,30.60
2018-07-27T12:44:57.100Z,30.20
2018-07-27T12:47:25.400Z,30.00
2018-07-27T12:49:54.336Z,30.30
2018-07-27T12:52:23.383Z,30.00
2018-07-27T12:54:51.688Z,28.40
2018-07-27T12:57:20.000Z,29.40
2018-07-27T12:59:48.300Z,28.90
2018-07-27T13:02:16.616Z,29.60
2018-07-27T13:04:44.959Z,29.50
2018-07-27T13:07:13.261Z,29.00
2018-07-27T13:09:42.564Z,28.70
2018-07-27T13:12:11.669Z,29.60
2018-07-27T13:14:40.140Z,28.50
2018-07-27T13:17:08.479Z,27.10
2018-07-27T13:19:36.782Z,29.30
2018-07-27T13:22:05.162Z,29.20
2018-07-27T13:25:00.617Z,29.60
2018-07-27T13:27:01.772Z,29.90
2018-07-27T13:29:30.105Z,29.20
2018-07-27T13:31:59.333Z,29.90
2018-07-27T13:34:34.629Z,29.00
2018-07-27T13:37:03.238Z,28.50
2018-07-27T13:39:32.064Z,30.00
2018-07-27T13:42:01.496Z,27.20
2018-07-27T13:44:30.683Z,28.70
2018-07-27T13:46:59.069Z,29.80
2018-07-27T13:49:28.004Z,28.40
2018-07-27T13:51:56.579Z,28.50
2018-07-27T13:54:24.948Z,28.40
2018-07-27T13:56:53.281Z,27.10
2018-07-27T13:59:21.669Z,26.10
2018-07-27T14:01:50.280Z,26.20
2018-07-27T14:04:18.671Z,26.20
2018-07-27T14:06:48.928Z,25.10
2018-07-27T14:09:17.514Z,27.30
2018-07-27T14:11:45.891Z,27.50
2018-07-27T14:14:14.355Z,26.20
2018-07-27T14:16:42.953Z,26.50
2018-07-27T14:19:11.830Z,25.30
2018-07-27T14:21:40.395Z,26.90
2018-07-27T14:24:08.706Z,26.50
2018-07-27T14:26:37.003Z,25.20
2018-07-27T14:29:05.445Z,24.70
2018-07-27T14:31:33.740Z,25.00
2018-07-27T14:34:02.109Z,26.40
2018-07-27T14:36:31.187Z,26.40
2018-07-27T14:38:59.529Z,25.80
2018-07-27T14:41:27.924Z,27.50
2018-07-27T14:43:56.331Z,27.20
2018-07-27T14:46:24.652Z,26.70
2018-07-27T14:48:53.000Z,26.50
2018-07-27T14:51:21.337Z,27.80
2018-07-27T14:53:49.678Z,27.10
2018-07-27T14:56:18.140Z,27.10
2018-07-27T14:58:46.559Z,25.50
2018-07-27T15:01:14.864Z,26.00
2018-07-27T15:03:43.182Z,26.20
2018-07-27T15:06:11.543Z,25.30
2018-07-27T15:08:39.881Z,25.10
2018-07-27T15:11:08.322Z,25.50
2018-07-27T15:13:36.641Z,24.70
2018-07-27T15:16:05.102Z,24.20
2018-07-27T15:18:33.497Z,24.30
2018-07-27T15:21:10.712Z,26.10
2018-07-27T15:23:42.673Z,24.70
2018-07-27T15:26:18.350Z,24.30
2018-07-27T15:28:52.633Z,24.90
2018-07-27T15:31:27.588Z,23.20
2018-07-27T15:33:59.180Z,24.80
2018-07-27T15:39:12.595Z,24.80
2018-07-27T15:41:44.709Z,23.80
2018-07-27T15:44:23.793Z,24.20
2018-07-27T15:46:56.069Z,25.40
2018-07-27T15:49:27.965Z,24.80
2018-07-27T15:52:00.824Z,24.60
2018-07-27T15:54:36.143Z,24.50
2018-07-27T15:57:07.965Z,24.40
2018-07-27T15:59:39.549Z,25.80
2018-07-27T16:02:11.996Z,25.40
2018-07-27T16:04:45.345Z,29.00
2018-07-27T16:07:18.749Z,26.20
2018-07-27T16:09:50.396Z,25.90
2018-07-27T16:12:21.030Z,26.10
2018-07-27T16:14:53.637Z,27.20
2018-07-27T16:17:27.475Z,26.40
2018-07-27T16:20:00.365Z,26.40
2018-07-27T16:22:28.795Z,24.70
2018-07-27T16:25:03.344Z,25.80
2018-07-27T16:27:35.053Z,24.60
2018-07-27T16:30:08.789Z,26.40
2018-07-27T16:32:40.496Z,25.60
2018-07-27T16:35:15.860Z,25.20
2018-07-27T16:37:53.341Z,25.10
2018-07-27T16:40:24.666Z,25.30
2018-07-27T16:43:02.081Z,26.10
2018-07-27T16:45:37.650Z,26.80
2018-07-27T16:48:11.385Z,24.50
2018-07-27T16:50:46.919Z,25.90
2018-07-27T16:53:21.684Z,24.90
2018-07-27T16:55:55.325Z,24.50
2018-07-27T16:58:26.794Z,24.90
2018-07-27T17:01:00.539Z,25.00
2018-07-27T17:03:34.898Z,25.60
2018-07-27T17:06:10.106Z,26.60
2018-07-27T17:08:43.657Z,27.60
2018-07-27T17:11:16.883Z,27.70
2018-07-27T17:13:48.470Z,27.30
2018-07-27T17:16:20.266Z,27.30
2018-07-27T17:18:52.861Z,29.00
2018-07-27T17:21:26.727Z,27.60
2018-07-27T17:23:58.541Z,28.00
2018-07-27T17:26:29.007Z,28.20
2018-07-27T17:29:00.185Z,28.50
2018-07-27T17:31:31.839Z,28.00
2018-07-27T17:34:02.353Z,27.90
2018-07-27T17:36:35.808Z,28.00
2018-07-27T17:39:12.562Z,27.50
2018-07-27T17:41:45.098Z,27.90
2018-07-27T17:44:20.048Z,29.00
2018-07-27T17:46:57.453Z,29.10
2018-07-27T17:49:31.705Z,29.00
2018-07-27T17:52:03.086Z,28.30
2018-07-27T17:54:34.465Z,28.70
2018-07-27T17:57:06.727Z,29.30
2018-07-27T17:59:43.882Z,28.60
2018-07-27T18:02:14.533Z,30.00
2018-07-27T18:04:45.693Z,30.00
2018-07-27T18:07:17.206Z,29.40
2018-07-27T18:09:50.662Z,30.00
2018-07-27T18:12:30.685Z,31.20
2018-07-27T18:15:02.353Z,30.20
2018-07-27T18:17:36.297Z,30.00
2018-07-27T18:20:13.235Z,30.20
2018-07-27T18:22:45.461Z,31.70
2018-07-27T18:25:18.103Z,30.00
2018-07-27T18:27:52.113Z,31.10
2018-07-27T18:30:25.856Z,30.90
2018-07-27T18:33:00.945Z,31.30
2018-07-27T18:35:31.788Z,33.70
2018-07-27T18:38:05.004Z,32.20
2018-07-27T18:40:40.329Z,32.60
2018-07-27T18:43:13.289Z,33.70
2018-07-27T18:45:46.316Z,32.70
2018-07-27T18:48:17.834Z,32.90
2018-07-27T18:50:50.324Z,34.70
2018-07-27T18:53:22.665Z,34.60
2018-07-27T18:55:53.441Z,34.10
2018-07-27T18:58:24.134Z,34.20
2018-07-27T19:00:59.302Z,35.70
2018-07-27T19:03:31.105Z,37.00
2018-07-27T19:06:06.133Z,37.50
2018-07-27T19:08:36.489Z,38.20
2018-07-27T19:11:13.845Z,38.50
2018-07-27T19:13:46.867Z,42.20
2018-07-27T19:16:23.683Z,38.20
2018-07-27T19:18:57.591Z,39.00
2018-07-27T19:21:29.781Z,38.50
2018-07-27T19:24:01.301Z,39.80
2018-07-27T19:26:32.981Z,41.40
2018-07-27T19:29:05.422Z,42.50
2018-07-27T19:31:37.557Z,44.50
2018-07-27T19:34:09.231Z,44.30
2018-07-27T19:36:42.056Z,46.00
2018-07-27T19:39:17.432Z,46.50
2018-07-27T19:41:51.568Z,47.30
2018-07-27T19:44:22.863Z,48.90
2018-07-27T19:46:54.106Z,48.70
2018-07-27T19:49:30.269Z,50.70
2018-07-27T19:52:02.781Z,50.30
2018-07-27T19:54:36.686Z,50.20
2018-07-27T19:57:08.633Z,49.90
2018-07-27T19:59:52.126Z,49.80
2018-07-27T20:02:26.102Z,51.10
2018-07-27T20:04:58.048Z,51.10
2018-07-27T20:07:29.528Z,50.80
2018-07-27T20:10:02.222Z,51.40
2018-07-27T20:12:35.338Z,53.50
2018-07-27T20:15:09.212Z,54.30
2018-07-27T20:17:45.768Z,55.20
2018-07-27T20:20:18.378Z,55.00
2018-07-27T20:22:51.525Z,53.90
2018-07-27T20:25:24.209Z,54.50
2018-07-27T20:27:52.596Z,56.30
2018-07-27T20:33:01.411Z,57.20
2018-07-27T20:35:39.601Z,58.20
2018-07-27T20:38:12.819Z,59.80
2018-07-27T20:40:47.407Z,59.00
2018-07-27T20:43:21.191Z,60.00
2018-07-27T20:45:57.013Z,59.20
2018-07-27T20:48:31.869Z,58.10
2018-07-27T20:51:07.100Z,59.50
2018-07-27T20:53:42.662Z,59.90
2018-07-27T20:56:19.305Z,60.50
2018-07-27T20:58:50.947Z,60.90
2018-07-27T21:01:27.853Z,61.80
2018-07-27T21:04:06.182Z,63.10
2018-07-27T21:06:40.939Z,62.90
2018-07-27T21:09:14.626Z,62.80
2018-07-27T21:11:48.609Z,63.30
2018-07-27T21:14:20.954Z,63.30
2018-07-27T21:16:57.919Z,63.00
2018-07-27T21:19:31.099Z,63.30
2018-07-27T21:22:07.029Z,63.70
2018-07-27T21:24:35.484Z,62.70
2018-07-27T21:27:03.843Z,62.70
2018-07-27T21:29:32.136Z,62.10
2018-07-27T21:32:00.503Z,63.10
2018-07-27T21:34:28.799Z,62.20
2018-07-27T21:36:57.136Z,61.30
2018-07-27T21:39:25.450Z,62.60
2018-07-27T21:41:53.742Z,64.20
2018-07-27T21:44:22.300Z,62.60
2018-07-27T21:46:51.422Z,61.10
2018-07-27T21:49:19.767Z,60.70
2018-07-27T21:51:48.093Z,60.70
2018-07-27T21:54:16.507Z,61.00
2018-07-27T21:56:45.215Z,61.80
2018-07-27T21:59:13.681Z,62.20
2018-07-27T22:01:41.996Z,62.30
2018-07-27T22:04:10.375Z,64.80
2018-07-27T22:06:38.715Z,62.40
2018-07-27T22:09:08.922Z,59.50
2018-07-27T22:11:37.368Z,58.70
2018-07-27T22:14:05.773Z,58.50
2018-07-27T22:16:34.239Z,59.10
2018-07-27T22:19:02.561Z,59.40
2018-07-27T22:21:30.904Z,59.30
2018-07-27T22:23:59.235Z,59.70
2018-07-27T22:26:27.631Z,59.80
2018-07-27T22:28:55.943Z,60.00
2018-07-27T22:31:24.271Z,59.80
2018-07-27T22:33:53.339Z,59.90
2018-07-27T22:36:21.628Z,60.50
2018-07-27T22:38:50.056Z,60.80
2018-07-27T22:41:18.415Z,61.10
2018-07-27T22:43:46.766Z,64.60
2018-07-27T22:46:15.092Z,63.20
2018-07-27T22:48:43.376Z,64.60
2018-07-27T22:51:11.719Z,64.90
2018-07-27T22:53:40.129Z,64.30
2018-07-27T22:56:08.416Z,64.80
2018-07-27T22:58:36.756Z,65.60
2018-07-27T23:01:05.348Z,66.40
2018-07-27T23:03:33.704Z,67.60
2018-07-27T23:06:02.034Z,68.30
2018-07-27T23:08:30.400Z,68.20
2018-07-27T23:10:59.320Z,68.20
2018-07-27T23:13:28.451Z,68.50
2018-07-27T23:15:57.824Z,68.40
2018-07-27T23:18:26.458Z,69.70
2018-07-27T23:20:55.897Z,69.00
2018-07-27T23:23:24.223Z,68.50
2018-07-27T23:25:52.628Z,67.70
2018-07-27T23:28:20.943Z,66.10
2018-07-27T23:30:49.956Z,66.00
2018-07-27T23:33:18.295Z,65.30
2018-07-27T23:35:46.600Z,65.10
2018-07-27T23:38:14.911Z,64.70
2018-07-27T23:40:43.312Z,65.30
2018-07-27T23:43:11.705Z,65.10
2018-07-27T23:45:40.048Z,64.60
2018-07-27T23:48:09.403Z,65.10
2018-07-27T23:50:38.727Z,65.20
2018-07-27T23:53:07.199Z,65.20
2018-07-27T23:55:35.515Z,66.10
2018-07-27T23:58:03.862Z,65.50
